Main page
METAR-TAF:

METAR-TAF

Airports :

Iqaluit Airport

Iqaluit, Nunavut, Canada

latitude: 63-45N, longitude: 068-33W, elevation: 34 m

Current weather observation

The report was made 53 minutes ago, at 00:00 UTC
Wind 6 kt from the Northwest
Temperature -20°C
Humidity 77%
Pressure 999 hPa
Visibility: 1.6 km
light snow

METAR: CYFB 160000Z 32006KT 1SM -SN VV015 M20/M23 A2950 RMK SN8 SLP997

Time: 19:53 (00:53 UTC)

Forecast

The report was made 1 hour and 12 minutes ago, at 23:41 UTC
Forecast valid from 16 at 00 UTC to 16 at 24 UTC
Wind 3 kt from variable directions
Visibility: 1.6 km
at a height of 2000 ft
light snow
Temporary
from 16 at 00 UTC to 16 at 18 UTC
Visibility: 4.8 km
Overcast at a height of 5000 ft
light snow
From 16 at 1800 UTC
Wind 3 kt from variable directions
Visibility: 10 km
Broken clouds at a height of 5000 ft
light snow

TAF: CYFB 152341Z 1600/1624 VRB03KT 1SM -SN VV020 TEMPO 1600/1618 3SM -SN OVC050 FM161800 VRB03KT P6SM -SN BKN050 RMK NXT FCST BY 160600Z

Weather observations and forecasts of more than 4000 airports (METAR and TAF reports).

The available stations are represented by yellow and red dots on the map.

Hover mouse over dot to see the name of the station.

Then click to see weather observations and forecasts.

To change the map : click on the green buttons with a black cross to zoom in, on the green button with a dash to zoom out, or on the green arrows for adjacent maps.


METAR-TAF: